ADDS METAR Data INFO
IDs: Format: Raw Decoded Include TAF

Data at: 1958 UTC 15 Dec 2017

KAEJ 151955Z AUTO 14009KT 10SM CLR 05/M15 A3016 RMK AO2 T00541146
KAEJ 151935Z AUTO 13006KT 10SM CLR 05/M15 A3017 RMK AO2 T00491148
KAEJ 151915Z AUTO 14005KT 10SM CLR 04/M15 A3018 RMK AO2 T00401155
KAEJ 151855Z AUTO 16004KT 10SM CLR 03/M14 A3019 RMK AO2 T00261139
KAEJ 151835Z AUTO 14006KT 10SM CLR 01/M14 A3021 RMK AO2 T00111138
KAEJ 151815Z AUTO 15003KT 10SM CLR 00/M15 A3022 RMK AO2 T00001153
KAEJ 151755Z AUTO 12004KT 10SM CLR 00/M15 A3023 RMK AO2 T10031153 11003 21155
KAEJ 151735Z AUTO 00000KT 10SM CLR M01/M16 A3024 RMK AO2 T10151163
KAEJ 151715Z AUTO 00000KT 10SM CLR M02/M14 A3024 RMK AO2 T10161142
KAEJ 151655Z AUTO 18003KT 10SM CLR M04/M16 A3023 RMK AO2 T10381156
KAEJ 151635Z AUTO 00000KT 10SM CLR M05/M17 A3024 RMK AO2 T10481173
KAEJ 151615Z AUTO 00000KT 10SM CLR M06/M17 A3023 RMK AO2 T10601168
KAEJ 151555Z AUTO 00000KT 10SM CLR M07/M17 A3024 RMK AO2 T10731167
KAEJ 151535Z AUTO 00000KT 10SM CLR M09/M16 A3024 RMK AO2 T10921160
KAEJ 151515Z AUTO 00000KT 10SM CLR M11/M17 A3024 RMK AO2 T11091168
KAEJ 151455Z AUTO 00000KT 10SM CLR M13/M18 A3023 RMK AO2 T11261181
KAEJ 151435Z AUTO 00000KT 10SM CLR M14/M19 A3024 RMK AO2 T11411187
KAEJ 151415Z AUTO 00000KT 10SM CLR M14/M19 A3024 RMK AO2 T11401191
KAEJ 151355Z AUTO 00000KT 10SM CLR M14/M19 A3025 RMK AO2 T11381190
KAEJ 151335Z AUTO 29005KT 10SM CLR M13/M18 A3025 RMK AO2 T11291184
KAEJ 151315Z AUTO 00000KT 10SM CLR M14/M19 A3025 RMK AO2 T11421192
KAEJ 151255Z AUTO 25003KT 10SM CLR M14/M19 A3025 RMK AO2 T11411189
KAEJ 151235Z AUTO 25007KT 10SM CLR M15/M19 A3025 RMK AO2 T11511192
KAEJ 151215Z AUTO 00000KT 10SM CLR M13/M19 A3026 RMK AO2 T11271187
KAEJ 151155Z AUTO 27005KT 10SM CLR M11/M18 A3026 RMK AO2 T11071181 11047 21138
KAEJ 151135Z AUTO 24004G14KT 10SM CLR M09/M18 A3026 RMK AO2 T10871177
KAEJ 151115Z AUTO 28011KT 10SM CLR M10/M17 A3026 RMK AO2 T10961173
KAEJ 151055Z AUTO 25006KT 10SM CLR M12/M18 A3027 RMK AO2 T11231184
KAEJ 151035Z AUTO 25004KT 10SM CLR M13/M19 A3027 RMK AO2 T11351195
KAEJ 151015Z AUTO 31008KT 10SM CLR M10/M17 A3028 RMK AO2 T10961173
KAEJ 150955Z AUTO 31009KT 10SM CLR M08/M17 A3028 RMK AO2 T10801166
KAEJ 150935Z AUTO 31013KT 10SM CLR M08/M17 A3026 RMK AO2 T10781170
KAEJ 150915Z AUTO 25003KT 10SM CLR M10/M18 A3026 RMK AO2 T10991181
KAEJ 150855Z AUTO 27007KT 10SM CLR M08/M17 A3027 RMK AO2 T10821173
KAEJ 150835Z AUTO 27004G19KT 10SM CLR M06/M17 A3026 RMK AO2 T10631169
KAEJ 150815Z AUTO 33015G26KT 10SM CLR M06/M17 A3025 RMK AO2 T10611167
KAEJ 150755Z AUTO 32014G30KT 10SM CLR M06/M17 A3025 RMK AO2 T10571169
KAEJ 150735Z AUTO 31019G24KT 10SM CLR M05/M17 A3026 RMK AO2 T10551171
KAEJ 150715Z AUTO 30010G14KT 10SM CLR M06/M17 A3028 RMK AO2 T10611174
KAEJ 150655Z AUTO 29010KT 10SM CLR M07/M16 A3028 RMK AO2 T10661159
KAEJ 150635Z AUTO 31012KT 10SM CLR M06/M15 A3028 RMK AO2 T10621153
KAEJ 150615Z AUTO 32018G27KT 10SM CLR M05/M15 A3027 RMK AO2 T10551151
KAEJ 150555Z AUTO 33025G31KT 10SM CLR M05/M15 A3026 RMK AO2 T10531150 11019 21054 400201082
KAEJ 150535Z AUTO 32019G26KT 10SM CLR M05/M15 A3026 RMK AO2 T10521146
KAEJ 150515Z AUTO 32022G30KT 10SM CLR M05/M15 A3025 RMK AO2 T10501146
KAEJ 150455Z AUTO 31025G31KT 10SM CLR M05/M14 A3025 RMK AO2 T10521143
KAEJ 150435Z AUTO 32022G29KT 10SM CLR M05/M14 A3025 RMK AO2 T10511140
KAEJ 150415Z AUTO 31019G31KT 10SM CLR M05/M14 A3025 RMK AO2 T10501140
KAEJ 150355Z AUTO 32022G26KT 10SM CLR M05/M14 A3024 RMK AO2 T10471145
KAEJ 150335Z AUTO 32023G30KT 10SM CLR M05/M14 A3024 RMK AO2 T10471141
KAEJ 150315Z AUTO 32019G30KT 10SM CLR M05/M14 A3024 RMK AO2 T10461141
KAEJ 150255Z AUTO 33023G32KT 10SM CLR M04/M14 A3023 RMK AO2 T10431144
KAEJ 150235Z AUTO 33018G29KT 10SM CLR M04/M14 A3023 RMK AO2 T10401143
KAEJ 150215Z AUTO 33021G31KT 10SM CLR M04/M14 A3022 RMK AO2 T10381145
KAEJ 150155Z AUTO 33017G23KT 10SM CLR M04/M14 A3023 RMK AO2 T10381145
KAEJ 150135Z AUTO 33017G24KT 10SM CLR M04/M15 A3022 RMK AO2 T10361146
KAEJ 150115Z AUTO 33015G20KT 10SM CLR M03/M15 A3022 RMK AO2 T10321150
KAEJ 150055Z AUTO 33016G20KT 10SM CLR M03/M15 A3022 RMK AO2 T10311153
KAEJ 150035Z AUTO 32011KT 10SM CLR M03/M16 A3020 RMK AO2 T10291156
KAEJ 150015Z AUTO 31009KT 10SM CLR M02/M16 A3021 RMK AO2 T10251163
KAEJ 142355Z AUTO 32012G18KT 10SM CLR M02/M16 A3021 RMK AO2 T10181164 10020 21020
KAEJ 142335Z AUTO 31014G20KT 10SM CLR M01/M16 A3020 RMK AO2 T10151160
KAEJ 142315Z AUTO 31015G20KT 10SM CLR M01/M15 A3019 RMK AO2 T10101151
KAEJ 142255Z AUTO 32013G19KT 10SM CLR 00/M15 A3019 RMK AO2 T00001149
KAEJ 142235Z AUTO 32015G23KT 10SM CLR 01/M15 A3018 RMK AO2 T00051146
KAEJ 142215Z AUTO 30018G24KT 10SM CLR 01/M15 A3016 RMK AO2 T00091147
KAEJ 142155Z AUTO 31019G22KT 10SM CLR 01/M14 A3015 RMK AO2 T00121141
KAEJ 142135Z AUTO 33015G23KT 10SM CLR 02/M14 A3014 RMK AO2 T00161140
KAEJ 142115Z AUTO 33018G23KT 10SM CLR 02/M13 A3013 RMK AO2 T00201127
KAEJ 142055Z AUTO 32018G25KT 10SM CLR 02/M12 A3013 RMK AO2 T00181122
KAEJ 142035Z AUTO 33019G26KT 10SM CLR 02/M11 A3012 RMK AO2 T00181114
KAEJ 142015Z AUTO 33019G26KT 10SM CLR 02/M10 A3012 RMK AO2 T00171102
KAEJ 141955Z AUTO 33018G23KT 10SM CLR 02/M09 A3012 RMK AO2 T00151093
KAEJ 141935Z AUTO 19005KT 10SM CLR 00/M07 A3014 RMK AO2 T10051068
KAEJ 141915Z AUTO 13003KT 10SM CLR M01/M07 A3015 RMK AO2 T10121066
KAEJ 141855Z AUTO 18003KT 10SM CLR M01/M06 A3015 RMK AO2 T10151064
KAEJ 141835Z AUTO 15004KT 10SM CLR M02/M06 A3016 RMK AO2 T10161063
KAEJ 141815Z AUTO 12005KT 10SM SCT014 M02/M06 A3017 RMK AO2 T10201060
KAEJ 141755Z AUTO 13006KT 10SM SCT012 M02/M06 A3019 RMK AO2 T10211058 11021 21082
KAEJ 141735Z AUTO 12007KT 10SM CLR M02/M06 A3019 RMK AO2 T10251059
KAEJ 141715Z AUTO 11007KT 10SM SCT035 M03/M05 A3020 RMK AO2 T10271055
KAEJ 141655Z AUTO 13004KT 7SM -SN SCT013 BKN037 M03/M06 A3020 RMK AO2 T10341057
KAEJ 141635Z AUTO 15004KT 4SM -SN SCT013 BKN025 OVC048 M04/M06 A3020 RMK AO2 T10401061
KAEJ 141615Z AUTO 00000KT 2 1/2SM -SN SCT036 OVC048 M04/M06 A3020 RMK AO2 VIS 2V4 T10431064
KAEJ 141555Z AUTO 00000KT 10SM SCT034 OVC050 M06/M08 A3019 RMK AO2 T10611081
KAEJ 141535Z AUTO 25004KT 7SM OVC050 M08/M09 A3019 RMK AO2 T10761090
KAEJ 141515Z AUTO 29003KT 10SM BKN050 M08/M09 A3019 RMK AO2 T10761090
KAEJ 141455Z AUTO 26003KT 10SM SCT018 SCT024 SCT039 M06/M07 A3018 RMK AO2 T10601074
KAEJ 141435Z AUTO 00000KT 2 1/2SM -SN BKN014 OVC021 M04/M06 A3017 RMK AO2 T10451057
KAEJ 141415Z AUTO 00000KT 2 1/2SM -SN SCT010 OVC014 M04/M05 A3017 RMK AO2 T10401055
KAEJ 141355Z AUTO 23003KT 2SM -SN BKN008 OVC014 M04/M05 A3017 RMK AO2 T10401052
KAEJ 141335Z AUTO 20003KT 1 1/2SM -SN OVC008 M04/M05 A3016 RMK AO2 T10401052
KAEJ 141315Z AUTO 00000KT 1 1/2SM -SN OVC008 M04/M05 A3016 RMK AO2 T10401052
KAEJ 141255Z AUTO 00000KT 1 3/4SM -SN OVC008 M04/M05 A3015 RMK AO2 T10381052
KAEJ 141235Z AUTO 00000KT 1 3/4SM -SN OVC006 M04/M05 A3013 RMK AO2 T10361050
KAEJ 141215Z AUTO 05003KT 1 1/4SM -SN OVC006 M04/M05 A3012 RMK AO2 T10371051
KAEJ 141155Z AUTO 00000KT 1 3/4SM -SN OVC009 M03/M05 A3011 RMK AO2 T10351050 10010 21035
KAEJ 141135Z AUTO 00000KT 1 1/2SM -SN OVC009 M03/M05 A3011 RMK AO2 T10351050
KAEJ 141115Z AUTO 00000KT 1 1/2SM -SN OVC009 M03/M05 A3010 RMK AO2 T10351049
KAEJ 141055Z AUTO 00000KT 1 1/2SM -SN OVC010 M03/M05 A3010 RMK AO2 T10351048
KAEJ 141035Z AUTO 00000KT 1 1/2SM -SN BKN012 OVC025 M03/M05 A3010 RMK AO2 T10301047
KAEJ 141015Z AUTO 07003KT 1 1/2SM -SN SCT007 SCT012 OVC023 M03/M04 A3010 RMK AO2 T10301045
KAEJ 140955Z AUTO 00000KT 1 3/4SM -SN BKN007 OVC017 M03/M04 A3010 RMK AO2 T10261040
KAEJ 140935Z AUTO 00000KT 1 1/4SM -SN OVC009 M02/M04 A3009 RMK AO2 T10251038
KAEJ 140915Z AUTO 00000KT 1 1/4SM SN BKN009 OVC017 M02/M04 A3009 RMK AO2 T10251040
KAEJ 140855Z AUTO 09005KT 3SM -SN SCT011 BKN018 OVC033 M02/M04 A3009 RMK AO2 T10211040
KAEJ 140835Z AUTO 00000KT 5SM -SN BKN021 BKN044 OVC055 M02/M05 A3009 RMK AO2 T10171046
KAEJ 140815Z AUTO 07004KT 4SM -SN SCT018 BKN030 OVC055 M02/M05 A3008 RMK AO2 T10191047